createdAt,value
2017-07-03T00:00:08.589Z,3.57
2017-07-03T00:02:34.649Z,3.60
2017-07-03T00:05:00.740Z,5.50
2017-07-03T00:07:26.863Z,4.03
2017-07-03T00:09:52.897Z,3.57
2017-07-03T00:12:18.925Z,3.43
2017-07-03T00:14:44.969Z,3.93
2017-07-03T00:17:11.781Z,3.57
2017-07-03T00:19:37.816Z,3.33
2017-07-03T00:22:04.609Z,3.40
2017-07-03T00:24:30.631Z,4.13
2017-07-03T00:26:57.413Z,3.90
2017-07-03T00:29:23.469Z,3.70
2017-07-03T00:31:50.278Z,3.80
2017-07-03T00:34:16.296Z,3.13
2017-07-03T00:36:42.337Z,4.10
2017-07-03T00:39:08.377Z,2.73
2017-07-03T00:41:34.417Z,4.10
2017-07-03T00:44:00.476Z,3.20
2017-07-03T00:46:26.521Z,3.23
2017-07-03T00:48:52.574Z,5.27
2017-07-03T00:51:18.889Z,4.10
2017-07-03T00:53:45.683Z,3.63
2017-07-03T00:56:11.749Z,4.70
2017-07-03T00:58:37.824Z,4.00
2017-07-03T01:01:04.617Z,3.43
2017-07-03T01:03:30.694Z,4.00
2017-07-03T01:05:56.770Z,3.90
2017-07-03T01:08:22.856Z,3.67
2017-07-03T01:10:48.916Z,4.20
2017-07-03T01:13:14.945Z,5.07
2017-07-03T01:15:40.999Z,3.77
2017-07-03T01:18:07.777Z,3.87
2017-07-03T01:20:33.817Z,4.40
2017-07-03T01:22:59.856Z,3.73
2017-07-03T01:25:26.643Z,4.40
2017-07-03T01:27:52.706Z,3.67
2017-07-03T01:30:18.765Z,3.73
2017-07-03T01:32:44.830Z,5.30
2017-07-03T01:35:10.874Z,2.70
2017-07-03T01:37:36.920Z,3.70
2017-07-03T01:40:02.984Z,3.90
2017-07-03T01:42:29.058Z,3.23
2017-07-03T01:44:55.150Z,2.90
2017-07-03T01:47:21.206Z,3.73
2017-07-03T01:49:47.241Z,4.83
2017-07-03T01:52:13.280Z,4.70
2017-07-03T01:54:40.077Z,6.03
2017-07-03T01:57:06.121Z,3.97
2017-07-03T01:59:32.164Z,4.30
2017-07-03T02:01:58.188Z,3.40
2017-07-03T02:04:24.229Z,4.80
2017-07-03T02:06:50.274Z,3.90
2017-07-03T02:09:16.321Z,4.70
2017-07-03T02:11:42.349Z,4.07
2017-07-03T02:14:08.509Z,3.57
2017-07-03T02:16:34.543Z,4.10
2017-07-03T02:19:00.589Z,4.23
2017-07-03T02:21:26.630Z,7.23
2017-07-03T02:23:52.676Z,3.80
2017-07-03T02:26:18.738Z,3.30
2017-07-03T02:28:44.773Z,3.70
2017-07-03T02:31:10.832Z,3.77
2017-07-03T02:33:37.639Z,3.43
2017-07-03T02:36:03.685Z,5.00
2017-07-03T02:38:29.711Z,4.67
2017-07-03T02:40:55.743Z,3.77
2017-07-03T02:43:21.769Z,3.80
2017-07-03T02:45:47.812Z,4.03
2017-07-03T02:48:14.611Z,4.60
2017-07-03T02:50:40.669Z,4.17
2017-07-03T02:53:06.716Z,4.40
2017-07-03T02:55:32.765Z,4.00
2017-07-03T02:57:59.529Z,4.17
2017-07-03T03:00:25.597Z,3.77
2017-07-03T03:02:52.371Z,5.00
2017-07-03T03:05:18.429Z,4.30
2017-07-03T03:07:44.749Z,4.70
2017-07-03T03:10:11.538Z,6.43
2017-07-03T03:12:37.593Z,3.47
2017-07-03T03:15:04.389Z,4.17
2017-07-03T03:17:30.424Z,3.10
2017-07-03T03:19:56.491Z,4.70
2017-07-03T03:22:22.565Z,4.43
2017-07-03T03:24:48.623Z,4.70
2017-07-03T03:27:14.676Z,4.77
2017-07-03T03:29:40.737Z,3.70
2017-07-03T03:32:06.790Z,4.00
2017-07-03T03:34:32.845Z,4.13
2017-07-03T03:36:58.905Z,3.50
2017-07-03T03:39:25.684Z,4.80
2017-07-03T03:41:51.738Z,4.73
2017-07-03T03:44:17.773Z,3.50
2017-07-03T03:46:50.749Z,4.07
2017-07-03T03:49:16.803Z,5.57
2017-07-03T03:51:42.837Z,3.77
2017-07-03T03:54:08.877Z,4.03
2017-07-03T03:56:34.913Z,2.50
2017-07-03T03:59:00.961Z,4.60
2017-07-03T04:01:26.977Z,4.70
2017-07-03T04:03:53.004Z,4.10
2017-07-03T04:06:19.061Z,3.57
2017-07-03T04:08:45.847Z,4.47
2017-07-03T04:11:11.888Z,4.23
2017-07-03T04:13:37.929Z,4.57
2017-07-03T04:16:03.987Z,4.10
2017-07-03T04:18:30.052Z,4.10
2017-07-03T04:20:56.105Z,4.13
2017-07-03T04:23:22.153Z,3.67
2017-07-03T04:25:48.949Z,4.97
2017-07-03T04:28:15.014Z,3.50
2017-07-03T04:30:41.064Z,3.97
2017-07-03T04:33:07.094Z,5.33
2017-07-03T04:35:33.153Z,3.80
2017-07-03T04:37:59.196Z,4.00
2017-07-03T04:40:25.240Z,3.73
2017-07-03T04:42:52.019Z,4.23
2017-07-03T04:45:18.100Z,4.53
2017-07-03T04:47:44.157Z,4.30
2017-07-03T04:50:10.201Z,4.77
2017-07-03T04:52:36.237Z,3.20
2017-07-03T04:55:02.261Z,4.13
2017-07-03T04:57:28.325Z,5.20
2017-07-03T04:59:55.101Z,4.20
2017-07-03T05:02:21.141Z,3.50
2017-07-03T05:04:47.190Z,4.17
2017-07-03T05:07:13.234Z,4.30
2017-07-03T05:09:39.296Z,4.40
2017-07-03T05:12:05.345Z,3.73
2017-07-03T05:14:38.425Z,4.00
2017-07-03T05:17:04.456Z,4.30
2017-07-03T05:19:30.491Z,4.67
2017-07-03T05:21:56.517Z,3.57
2017-07-03T05:24:22.557Z,4.93
2017-07-03T05:26:48.596Z,4.73
2017-07-03T05:29:15.385Z,2.43
2017-07-03T05:31:41.420Z,3.10
2017-07-03T05:34:07.470Z,4.70
2017-07-03T05:36:33.533Z,4.37
2017-07-03T05:38:59.557Z,3.57
2017-07-03T05:41:25.687Z,2.80
2017-07-03T05:43:57.925Z,4.30
2017-07-03T05:46:23.984Z,3.97
2017-07-03T05:48:50.065Z,3.73
2017-07-03T05:51:16.130Z,4.30
2017-07-03T05:53:42.160Z,3.30
2017-07-03T05:56:08.937Z,2.53
2017-07-03T05:58:34.998Z,4.20
2017-07-03T06:01:01.038Z,3.90
2017-07-03T06:03:27.082Z,3.50
2017-07-03T06:05:53.149Z,3.27
2017-07-03T06:08:19.176Z,3.43
2017-07-03T06:10:45.228Z,3.00
2017-07-03T06:13:11.253Z,3.70
2017-07-03T06:15:37.265Z,3.40
2017-07-03T06:18:03.314Z,3.70
2017-07-03T06:20:29.329Z,3.97
2017-07-03T06:22:55.377Z,3.40
2017-07-03T06:25:21.698Z,3.30
2017-07-03T06:27:47.784Z,3.20
2017-07-03T06:30:13.835Z,3.73
2017-07-03T06:32:40.626Z,4.37
2017-07-03T06:35:06.653Z,2.70
2017-07-03T06:37:32.678Z,3.20
2017-07-03T06:39:59.440Z,3.20
2017-07-03T06:42:25.465Z,3.40
2017-07-03T06:44:51.532Z,3.23
2017-07-03T06:47:17.567Z,4.23
2017-07-03T06:49:43.616Z,2.57
2017-07-03T06:52:09.647Z,2.47
2017-07-03T06:54:36.453Z,3.00
2017-07-03T06:57:02.484Z,3.03
2017-07-03T06:59:29.275Z,3.37
2017-07-03T07:01:55.318Z,2.97
2017-07-03T07:04:21.341Z,4.93
2017-07-03T07:06:47.397Z,2.70
2017-07-03T07:09:13.424Z,2.67
2017-07-03T07:11:39.449Z,3.00
2017-07-03T07:14:06.205Z,2.80
2017-07-03T07:16:32.245Z,1.90
2017-07-03T07:18:58.273Z,2.47
2017-07-03T07:21:24.293Z,2.77
2017-07-03T07:23:51.097Z,2.80
2017-07-03T07:26:17.130Z,2.87
2017-07-03T07:28:43.190Z,2.77
2017-07-03T07:31:09.233Z,2.40
2017-07-03T07:33:35.261Z,2.23
2017-07-03T07:36:02.034Z,2.00
2017-07-03T07:38:28.057Z,3.00
2017-07-03T07:40:54.085Z,2.47
2017-07-03T07:43:20.125Z,2.30
2017-07-03T07:45:46.903Z,2.43
2017-07-03T07:48:12.932Z,2.63
2017-07-03T07:50:38.993Z,3.47
2017-07-03T07:53:05.030Z,3.60
2017-07-03T07:55:31.069Z,2.80
2017-07-03T07:57:57.105Z,2.63
2017-07-03T08:00:23.149Z,2.57
2017-07-03T08:02:49.188Z,2.93
2017-07-03T08:05:15.973Z,2.73
2017-07-03T08:07:42.019Z,1.97
2017-07-03T08:10:08.814Z,2.57
2017-07-03T08:12:34.848Z,2.80
2017-07-03T08:15:00.908Z,2.33
2017-07-03T08:17:26.945Z,2.23
2017-07-03T08:19:53.005Z,2.90
2017-07-03T08:22:19.068Z,2.80
2017-07-03T08:24:45.097Z,2.13
2017-07-03T08:27:11.128Z,2.30
2017-07-03T08:29:45.041Z,2.73
2017-07-03T08:32:11.089Z,2.50
2017-07-03T08:34:37.146Z,2.90
2017-07-03T08:37:03.188Z,2.70
2017-07-03T08:39:29.220Z,3.47
2017-07-03T08:41:55.257Z,2.50
2017-07-03T08:44:22.069Z,1.63
2017-07-03T08:46:48.871Z,3.20
2017-07-03T08:49:14.934Z,4.63
2017-07-03T08:51:40.960Z,1.83
2017-07-03T08:54:06.995Z,2.43
2017-07-03T08:56:33.020Z,2.60
2017-07-03T08:58:59.036Z,3.43
2017-07-03T09:01:25.056Z,2.90
2017-07-03T09:03:51.817Z,2.50
2017-07-03T09:06:17.881Z,3.53
2017-07-03T09:08:44.673Z,2.00
2017-07-03T09:11:10.733Z,2.13
2017-07-03T09:13:36.761Z,1.83
2017-07-03T09:16:02.781Z,2.00
2017-07-03T09:18:29.580Z,1.60
2017-07-03T09:20:56.348Z,1.87
2017-07-03T09:23:22.401Z,1.97
2017-07-03T09:25:49.164Z,2.00
2017-07-03T09:28:15.210Z,2.90
2017-07-03T09:30:41.269Z,2.07
2017-07-03T09:33:07.293Z,1.70
2017-07-03T09:35:33.342Z,2.50
2017-07-03T09:37:59.382Z,3.07
2017-07-03T09:40:25.413Z,2.70
2017-07-03T09:42:51.432Z,2.53
2017-07-03T09:45:17.469Z,2.37
2017-07-03T09:47:43.514Z,2.20
2017-07-03T09:50:10.339Z,2.00
2017-07-03T09:52:37.136Z,3.87
2017-07-03T09:55:03.193Z,2.83
2017-07-03T09:57:29.231Z,2.37
2017-07-03T09:59:55.273Z,3.77
2017-07-03T10:02:22.088Z,2.50
2017-07-03T10:04:48.125Z,2.03
2017-07-03T10:07:14.949Z,2.20
2017-07-03T10:09:40.996Z,2.57
2017-07-03T10:12:07.053Z,2.20
2017-07-03T10:14:33.106Z,1.80
2017-07-03T10:16:59.146Z,2.30
2017-07-03T10:19:25.183Z,2.07
2017-07-03T10:21:51.215Z,2.40
2017-07-03T10:24:17.268Z,3.00
2017-07-03T10:26:43.328Z,3.30
2017-07-03T10:29:09.447Z,2.47
2017-07-03T10:31:35.476Z,1.87
2017-07-03T10:34:01.540Z,2.10
2017-07-03T10:36:28.316Z,2.17
2017-07-03T10:38:54.341Z,2.57
2017-07-03T10:41:20.378Z,2.10
2017-07-03T10:43:46.423Z,2.40
2017-07-03T10:46:12.457Z,2.70
2017-07-03T10:48:38.513Z,3.73
2017-07-03T10:51:04.535Z,3.70
2017-07-03T10:53:30.580Z,2.90
2017-07-03T10:55:56.606Z,2.27
2017-07-03T10:58:22.681Z,2.33
2017-07-03T11:00:48.725Z,2.47
2017-07-03T11:03:14.781Z,2.10
2017-07-03T11:05:41.552Z,2.30
2017-07-03T11:08:07.565Z,2.80
2017-07-03T11:10:33.598Z,2.60
2017-07-03T11:12:59.617Z,2.00
2017-07-03T11:15:26.393Z,3.03
2017-07-03T11:17:52.424Z,2.50
2017-07-03T11:20:18.468Z,2.50
2017-07-03T11:22:44.638Z,2.67
2017-07-03T11:25:10.684Z,3.20
2017-07-03T11:27:37.477Z,3.47
2017-07-03T11:30:03.513Z,3.00
2017-07-03T11:32:30.303Z,2.10
2017-07-03T11:34:56.349Z,3.57
2017-07-03T11:37:23.137Z,2.83
2017-07-03T11:39:49.164Z,2.33
2017-07-03T11:42:15.193Z,2.33
2017-07-03T11:44:41.213Z,2.67
2017-07-03T11:47:07.257Z,3.50
2017-07-03T11:49:33.293Z,2.93
2017-07-03T11:51:59.326Z,2.30
2017-07-03T11:54:26.113Z,2.30
2017-07-03T11:56:52.137Z,2.67
2017-07-03T11:59:18.192Z,2.50
2017-07-03T12:01:44.221Z,1.50
2017-07-03T12:04:10.261Z,2.80
2017-07-03T12:06:36.285Z,2.97
2017-07-03T12:09:02.309Z,3.30
2017-07-03T12:11:29.072Z,3.57
2017-07-03T12:13:55.137Z,3.00
2017-07-03T12:16:21.149Z,2.33
2017-07-03T12:18:47.186Z,3.23
2017-07-03T12:21:13.218Z,3.40
2017-07-03T12:23:39.243Z,3.43
2017-07-03T12:26:05.344Z,3.87
2017-07-03T12:28:31.389Z,4.03
2017-07-03T12:30:57.433Z,2.70
2017-07-03T12:33:23.489Z,2.30
2017-07-03T12:35:49.526Z,3.10
2017-07-03T12:38:16.309Z,2.37
2017-07-03T12:40:42.348Z,3.10
2017-07-03T12:43:08.364Z,3.47
2017-07-03T12:45:34.416Z,2.17
2017-07-03T12:48:00.464Z,2.93
2017-07-03T12:50:26.513Z,3.47
2017-07-03T12:52:52.557Z,3.00
2017-07-03T12:55:18.613Z,2.70
2017-07-03T12:57:45.404Z,3.07
2017-07-03T13:00:11.455Z,3.10
2017-07-03T13:02:38.238Z,2.37
2017-07-03T13:05:04.264Z,3.23
2017-07-03T13:07:30.329Z,3.93
2017-07-03T13:09:56.373Z,3.47
2017-07-03T13:12:22.410Z,3.10
2017-07-03T13:14:49.184Z,3.63
2017-07-03T13:17:15.213Z,3.30
2017-07-03T13:19:41.244Z,3.53
2017-07-03T13:22:07.295Z,3.10
2017-07-03T13:24:33.344Z,2.53
2017-07-03T13:26:59.405Z,3.37
2017-07-03T13:29:25.465Z,3.00
2017-07-03T13:31:51.489Z,2.70
2017-07-03T13:34:18.260Z,3.63
2017-07-03T13:36:44.283Z,3.20
2017-07-03T13:39:10.358Z,2.93
2017-07-03T13:41:36.398Z,2.60
2017-07-03T13:44:02.429Z,2.57
2017-07-03T13:46:28.531Z,2.93
2017-07-03T13:48:54.689Z,2.60
2017-07-03T13:51:21.452Z,3.47
2017-07-03T13:53:47.502Z,4.33
2017-07-03T13:56:14.314Z,3.10
2017-07-03T13:58:40.379Z,2.00
2017-07-03T14:01:06.419Z,3.30
2017-07-03T14:03:32.453Z,3.53
2017-07-03T14:05:58.526Z,2.90
2017-07-03T14:08:24.570Z,3.40
2017-07-03T14:10:50.613Z,2.57
2017-07-03T14:13:16.658Z,2.80
2017-07-03T14:15:42.722Z,3.50
2017-07-03T14:18:08.766Z,2.83
2017-07-03T14:20:34.805Z,3.00
2017-07-03T14:23:00.856Z,3.30
2017-07-03T14:25:26.893Z,5.27
2017-07-03T14:27:52.976Z,3.00
2017-07-03T14:30:19.732Z,3.10
2017-07-03T14:32:45.782Z,2.80
2017-07-03T14:35:11.812Z,2.33
2017-07-03T14:37:37.849Z,2.97
2017-07-03T14:40:03.881Z,3.27
2017-07-03T14:42:29.917Z,2.50
2017-07-03T14:44:55.933Z,3.00
2017-07-03T14:47:22.732Z,3.37
2017-07-03T14:49:48.772Z,3.40
2017-07-03T14:52:14.873Z,3.07
2017-07-03T14:54:40.921Z,2.80
2017-07-03T14:57:06.968Z,3.23
2017-07-03T14:59:32.997Z,3.07
2017-07-03T15:01:59.072Z,2.97
2017-07-03T15:04:25.165Z,2.03
2017-07-03T15:06:51.192Z,3.00
2017-07-03T15:09:17.250Z,2.80
2017-07-03T15:11:43.288Z,3.40
2017-07-03T15:14:09.369Z,3.20
2017-07-03T15:16:36.165Z,3.10
2017-07-03T15:19:09.245Z,2.80
2017-07-03T15:21:35.277Z,3.43
2017-07-03T15:24:02.180Z,2.27
2017-07-03T15:26:28.208Z,4.50
2017-07-03T15:28:54.997Z,2.77
2017-07-03T15:31:21.040Z,3.70
2017-07-03T15:33:47.809Z,3.50
2017-07-03T15:36:13.846Z,3.73
2017-07-03T15:38:39.875Z,2.73
2017-07-03T15:41:05.941Z,3.63
2017-07-03T15:43:31.970Z,4.63
2017-07-03T15:45:58.012Z,5.57
2017-07-03T15:48:24.797Z,6.43
2017-07-03T15:50:50.816Z,5.90
2017-07-03T15:53:16.842Z,7.20
2017-07-03T15:55:49.894Z,6.03
2017-07-03T15:58:15.925Z,6.90
2017-07-03T16:00:41.993Z,6.83
2017-07-03T16:03:08.038Z,5.90
2017-07-03T16:05:34.087Z,4.63
2017-07-03T16:08:00.117Z,5.27
2017-07-03T16:10:26.141Z,4.30
2017-07-03T16:12:52.177Z,4.60
2017-07-03T16:15:18.201Z,6.10
2017-07-03T16:17:45.015Z,5.50
2017-07-03T16:20:11.828Z,4.53
2017-07-03T16:22:37.865Z,4.20
2017-07-03T16:25:04.621Z,4.30
2017-07-03T16:27:31.485Z,4.60
2017-07-03T16:29:57.588Z,5.10
2017-07-03T16:32:26.497Z,4.47
2017-07-03T16:34:53.282Z,4.73
2017-07-03T16:37:19.316Z,4.73
2017-07-03T16:39:45.369Z,4.47
2017-07-03T16:42:11.420Z,5.13
2017-07-03T16:44:37.477Z,5.03
2017-07-03T16:47:03.498Z,4.80
2017-07-03T16:49:29.557Z,5.60
2017-07-03T16:51:55.591Z,6.00
2017-07-03T16:54:22.369Z,5.27
2017-07-03T16:56:48.392Z,5.20
2017-07-03T16:59:14.448Z,5.07
2017-07-03T17:01:40.481Z,5.40
2017-07-03T17:04:06.539Z,5.10
2017-07-03T17:06:33.317Z,6.93
2017-07-03T17:08:59.348Z,5.10
2017-07-03T17:11:25.384Z,2.00
2017-07-03T17:13:52.177Z,4.40
2017-07-03T17:16:18.248Z,4.60
2017-07-03T17:18:44.316Z,4.20
2017-07-03T17:21:10.373Z,9.30
2017-07-03T17:23:36.401Z,9.60
2017-07-03T17:26:02.444Z,8.70
2017-07-03T17:28:28.485Z,7.07
2017-07-03T17:30:54.537Z,7.33
2017-07-03T17:33:20.560Z,10.00
2017-07-03T17:35:46.597Z,8.27
2017-07-03T17:38:13.401Z,10.03
2017-07-03T17:40:39.481Z,7.97
2017-07-03T17:43:20.499Z,9.80
2017-07-03T17:45:46.548Z,10.30
2017-07-03T17:48:12.602Z,9.03
2017-07-03T17:50:39.390Z,9.40
2017-07-03T17:53:05.430Z,9.67
2017-07-03T17:55:31.465Z,30.00
2017-07-03T17:57:57.525Z,10.60
2017-07-03T18:00:23.556Z,42.80
2017-07-03T18:03:05.313Z,8.50
2017-07-03T18:05:31.359Z,6.97
2017-07-03T18:07:57.712Z,6.70
2017-07-03T18:10:23.741Z,6.63
2017-07-03T18:12:49.773Z,8.33
2017-07-03T18:15:15.852Z,7.27
2017-07-03T18:17:41.888Z,7.93
2017-07-03T18:20:08.132Z,34.40
2017-07-03T18:22:34.173Z,15.00
2017-07-03T18:25:00.208Z,9.20
2017-07-03T18:27:26.241Z,6.70
2017-07-03T18:29:53.041Z,7.03
2017-07-03T18:32:19.093Z,7.70
2017-07-03T18:34:46.386Z,7.13
2017-07-03T18:37:12.602Z,8.17
2017-07-03T18:39:38.695Z,8.17
2017-07-03T18:42:04.741Z,7.07
2017-07-03T18:44:30.801Z,7.13
2017-07-03T18:46:56.882Z,7.30
2017-07-03T18:49:22.918Z,7.40
2017-07-03T18:51:49.004Z,7.20
2017-07-03T18:54:15.041Z,7.83
2017-07-03T18:56:41.084Z,7.07
2017-07-03T18:59:07.145Z,6.70
2017-07-03T19:01:33.185Z,6.67
2017-07-03T19:03:59.230Z,7.27
2017-07-03T19:06:25.320Z,6.63
2017-07-03T19:08:51.377Z,7.23
2017-07-03T19:11:17.511Z,6.80
2017-07-03T19:13:43.556Z,8.63
2017-07-03T19:16:09.675Z,7.97
2017-07-03T19:18:35.777Z,7.20
2017-07-03T19:21:02.557Z,6.20
2017-07-03T19:23:28.593Z,6.90
2017-07-03T19:25:54.621Z,7.07
2017-07-03T19:28:20.657Z,7.10
2017-07-03T19:30:46.721Z,7.70
2017-07-03T19:33:12.757Z,7.70
2017-07-03T19:35:39.572Z,7.87
2017-07-03T19:38:05.605Z,7.73
2017-07-03T19:40:31.674Z,7.77
2017-07-03T19:42:57.701Z,7.50
2017-07-03T19:45:23.785Z,9.67
2017-07-03T19:47:49.838Z,8.63
2017-07-03T19:50:15.932Z,8.10
2017-07-03T19:52:42.002Z,8.83
2017-07-03T19:55:08.070Z,8.13
2017-07-03T19:57:34.109Z,8.20
2017-07-03T20:00:00.222Z,8.23
2017-07-03T20:02:26.261Z,7.57
2017-07-03T20:04:52.317Z,9.63
2017-07-03T20:07:18.397Z,7.80
2017-07-03T20:09:45.177Z,7.50
2017-07-03T20:12:11.213Z,7.97
2017-07-03T20:14:37.269Z,6.13
2017-07-03T20:17:03.325Z,6.77
2017-07-03T20:19:29.380Z,7.00
2017-07-03T20:21:56.162Z,7.10
2017-07-03T20:24:22.194Z,8.03
2017-07-03T20:26:49.027Z,7.73
2017-07-03T20:29:15.793Z,7.57
2017-07-03T20:31:41.817Z,8.40
2017-07-03T20:34:07.879Z,7.63
2017-07-03T20:36:48.905Z,7.00
2017-07-03T20:39:14.933Z,5.83
2017-07-03T20:41:41.713Z,6.63
2017-07-03T20:44:07.772Z,6.80
2017-07-03T20:46:34.545Z,8.40
2017-07-03T20:49:00.604Z,6.70
2017-07-03T20:51:26.648Z,7.00
2017-07-03T20:53:52.725Z,6.90
2017-07-03T20:56:18.777Z,7.33
2017-07-03T20:58:44.814Z,6.93
2017-07-03T21:01:10.845Z,7.57
2017-07-03T21:03:36.881Z,6.90
2017-07-03T21:06:02.940Z,6.53
2017-07-03T21:08:28.987Z,6.73
2017-07-03T21:10:55.096Z,7.07
2017-07-03T21:13:21.898Z,7.77
2017-07-03T21:15:48.738Z,6.90
2017-07-03T21:18:15.510Z,7.60
2017-07-03T21:20:41.552Z,7.07
2017-07-03T21:23:07.601Z,8.50
2017-07-03T21:25:33.633Z,8.33
2017-07-03T21:27:59.665Z,8.77
2017-07-03T21:30:25.732Z,8.40
2017-07-03T21:32:51.769Z,8.47
2017-07-03T21:35:17.800Z,7.60
2017-07-03T21:37:43.842Z,7.53
2017-07-03T21:40:09.896Z,8.50
2017-07-03T21:42:35.965Z,7.70
2017-07-03T21:45:02.765Z,7.70
2017-07-03T21:47:29.565Z,7.77
2017-07-03T21:49:55.602Z,6.77
2017-07-03T21:52:21.638Z,6.00
2017-07-03T21:54:47.661Z,7.87
2017-07-03T21:57:13.704Z,8.30
2017-07-03T21:59:39.754Z,7.80
2017-07-03T22:02:06.517Z,7.27
2017-07-03T22:04:32.553Z,7.27
2017-07-03T22:06:58.572Z,7.60
2017-07-03T22:09:24.633Z,7.00
2017-07-03T22:11:50.680Z,7.50
2017-07-03T22:14:16.729Z,7.57
2017-07-03T22:16:43.517Z,8.00
2017-07-03T22:19:09.558Z,6.03
2017-07-03T22:21:36.353Z,7.83
2017-07-03T22:24:02.381Z,6.87
2017-07-03T22:26:28.436Z,6.73
2017-07-03T22:28:54.483Z,7.60
2017-07-03T22:31:20.521Z,8.30
2017-07-03T22:33:47.312Z,7.37
2017-07-03T22:36:13.353Z,7.77
2017-07-03T22:38:39.405Z,6.90
2017-07-03T22:41:05.449Z,8.00
2017-07-03T22:43:31.477Z,7.83
2017-07-03T22:45:58.263Z,7.70
2017-07-03T22:48:31.313Z,7.77
2017-07-03T22:50:57.333Z,7.33
2017-07-03T22:53:23.368Z,7.87
2017-07-03T22:55:49.404Z,7.90
2017-07-03T22:58:16.193Z,7.77
2017-07-03T23:00:42.241Z,8.40
2017-07-03T23:03:08.286Z,8.90
2017-07-03T23:05:34.344Z,7.50
2017-07-03T23:08:00.428Z,8.50
2017-07-03T23:10:33.363Z,7.60
2017-07-03T23:12:59.418Z,9.47
2017-07-03T23:15:25.468Z,8.90
2017-07-03T23:17:52.233Z,9.67
2017-07-03T23:20:18.276Z,9.57
2017-07-03T23:22:44.310Z,8.07
2017-07-03T23:25:10.380Z,9.50
2017-07-03T23:27:43.347Z,12.83
2017-07-03T23:30:09.396Z,9.03
2017-07-03T23:32:36.177Z,10.20
2017-07-03T23:35:02.273Z,9.27
2017-07-03T23:37:28.297Z,9.20
2017-07-03T23:39:54.356Z,8.10
2017-07-03T23:42:20.389Z,10.30
2017-07-03T23:44:46.446Z,9.17
2017-07-03T23:47:12.482Z,8.40
2017-07-03T23:49:38.513Z,9.00
2017-07-03T23:52:04.556Z,8.40
2017-07-03T23:54:30.582Z,8.10
2017-07-03T23:56:57.382Z,8.90
2017-07-03T23:59:38.401Z,8.63
